ESSP/NRK METAR and TAF weather

Enter ICAO airport designator
Station Type Date Time Source
ESSP METAR 2019/05/25 14:50 UTC NOAA

ESSP 251450Z 29005KT 240V020 9999 SCT046 17/09 Q1006


Station Type Date Time Source
ESSP Decoded METAR 2019/05/25 14:50 UTC NOAA

Norrkoping, Sweden (ESSP) 58-35N 016-09E 0M
May 25, 2019 - 10:50 AM EDT / 2019.05.25 1450 UTC
Wind: from the WNW (290 degrees) at 6 MPH (5 KT) (direction variable):0
Visibility: greater than 7 mile(s):0
Sky conditions: partly cloudy
Temperature: 62 F (17 C)
Dew Point: 48 F (9 C)
Relative Humidity: 59%
Pressure (altimeter): 29.71 in. Hg (1006 hPa)
ob: ESSP 251450Z 29005KT 240V020 9999 SCT046 17/09 Q1006
cycle: 15

Station Type Date Time Source
ESSP TAF 2018/01/01 02:31 UTC NOAA

TAF ESSP 010130Z 0102/0206 16002KT 9999 BKN004 PROB40 0102/0106 4000 BR SCT004

Example: see airport list